createdAt,value
2019-04-28T00:00:23.300Z,1001.30
2019-04-28T00:01:23.212Z,1001.32
2019-04-28T00:02:23.141Z,1001.32
2019-04-28T00:03:23.095Z,1001.31
2019-04-28T00:04:23.043Z,1001.31
2019-04-28T00:05:22.948Z,1001.23
2019-04-28T00:06:22.873Z,1001.26
2019-04-28T00:07:22.795Z,1001.19
2019-04-28T00:08:22.722Z,1001.21
2019-04-28T00:09:23.166Z,1001.21
2019-04-28T00:10:22.597Z,1001.25
2019-04-28T00:11:22.535Z,1001.18
2019-04-28T00:12:22.944Z,1001.20
2019-04-28T00:13:22.370Z,1001.17
2019-04-28T00:14:22.300Z,1001.22
2019-04-28T00:15:22.234Z,1001.20
2019-04-28T00:16:22.878Z,1001.19
2019-04-28T00:17:22.111Z,1001.11
2019-04-28T00:18:22.119Z,1001.15
2019-04-28T00:19:21.969Z,1001.11
2019-04-28T00:20:21.895Z,1001.11
2019-04-28T00:21:21.812Z,1001.08
2019-04-28T00:22:21.745Z,1001.07
2019-04-28T00:23:21.732Z,1001.13
2019-04-28T00:24:23.081Z,1001.07
2019-04-28T00:25:21.570Z,1001.10
2019-04-28T00:26:21.460Z,1001.08
2019-04-28T00:27:21.697Z,1001.10
2019-04-28T00:28:21.324Z,1001.07
2019-04-28T00:29:21.267Z,1001.08
2019-04-28T00:30:21.769Z,1001.11
2019-04-28T00:31:21.313Z,1001.13
2019-04-28T00:32:21.152Z,1001.14
2019-04-28T00:33:22.630Z,1001.08
2019-04-28T00:34:21.334Z,1001.12
2019-04-28T00:35:21.743Z,1001.11
2019-04-28T00:36:21.611Z,1001.10
2019-04-28T00:37:21.170Z,1001.11
2019-04-28T00:38:21.595Z,1001.09
2019-04-28T00:39:21.038Z,1001.10
2019-04-28T00:40:21.763Z,1001.13
2019-04-28T00:41:21.390Z,1001.10
2019-04-28T00:42:22.519Z,1001.09
2019-04-28T00:43:21.778Z,1001.10
2019-04-28T00:44:21.800Z,1001.11
2019-04-28T00:45:21.521Z,1001.09
2019-04-28T00:46:21.113Z,1001.12
2019-04-28T00:47:21.080Z,1001.13
2019-04-28T00:48:20.950Z,1001.12
2019-04-28T00:49:21.478Z,1001.14
2019-04-28T00:50:21.625Z,1001.09
2019-04-28T00:51:21.305Z,1001.09
2019-04-28T00:52:19.650Z,1001.07
2019-04-28T00:53:20.659Z,1001.03
2019-04-28T00:54:19.515Z,1001.04
2019-04-28T00:55:20.978Z,1001.05
2019-04-28T00:56:19.399Z,1001.05
2019-04-28T00:57:21.024Z,1001.06
2019-04-28T00:58:20.865Z,1000.97
2019-04-28T00:59:19.179Z,1001.00
2019-04-28T01:00:19.107Z,1001.01
2019-04-28T01:01:19.018Z,1001.02
2019-04-28T01:02:18.947Z,1000.95
2019-04-28T01:03:18.880Z,1000.93
2019-04-28T01:04:18.810Z,1000.96
2019-04-28T01:05:18.751Z,1000.93
2019-04-28T01:06:18.695Z,1000.93
2019-04-28T01:07:18.617Z,1000.93
2019-04-28T01:08:18.538Z,1000.96
2019-04-28T01:09:18.459Z,1000.92
2019-04-28T01:10:18.390Z,1000.91
2019-04-28T01:11:18.332Z,1000.94
2019-04-28T01:12:18.262Z,1000.90
2019-04-28T01:13:18.180Z,1000.90
2019-04-28T01:14:18.110Z,1000.90
2019-04-28T01:15:20.084Z,1000.90
2019-04-28T01:16:19.411Z,1000.91
2019-04-28T01:17:19.726Z,1000.86
2019-04-28T01:18:17.836Z,1000.91
2019-04-28T01:19:17.771Z,1000.90
2019-04-28T01:20:19.557Z,1000.93
2019-04-28T01:21:17.618Z,1000.94
2019-04-28T01:22:17.552Z,1000.90
2019-04-28T01:23:17.473Z,1000.91
2019-04-28T01:24:17.404Z,1000.91
2019-04-28T01:25:17.346Z,1000.89
2019-04-28T01:26:17.289Z,1000.88
2019-04-28T01:27:17.196Z,1000.85
2019-04-28T01:28:17.126Z,1000.87
2019-04-28T01:29:17.065Z,1000.90
2019-04-28T01:30:17.001Z,1000.89
2019-04-28T01:31:16.932Z,1000.88
2019-04-28T01:32:16.857Z,1000.86
2019-04-28T01:33:16.778Z,1000.87
2019-04-28T01:34:16.706Z,1000.88
2019-04-28T01:35:16.632Z,1000.83
2019-04-28T01:36:16.567Z,1000.81
2019-04-28T01:37:16.503Z,1000.83
2019-04-28T01:38:16.446Z,1000.81
2019-04-28T01:39:16.367Z,1000.82
2019-04-28T01:40:16.291Z,1000.79
2019-04-28T01:41:16.210Z,1000.78
2019-04-28T01:42:16.142Z,1000.81
2019-04-28T01:43:16.086Z,1000.78
2019-04-28T01:44:16.010Z,1000.76
2019-04-28T01:45:15.930Z,1000.76
2019-04-28T01:46:15.858Z,1000.72
2019-04-28T01:47:15.810Z,1000.74
2019-04-28T01:48:15.721Z,1000.76
2019-04-28T01:49:15.663Z,1000.79
2019-04-28T01:50:15.591Z,1000.77
2019-04-28T01:51:15.510Z,1000.77
2019-04-28T01:52:15.437Z,1000.73
2019-04-28T01:53:15.379Z,1000.74
2019-04-28T01:54:15.311Z,1000.75
2019-04-28T01:55:15.248Z,1000.73
2019-04-28T01:56:15.167Z,1000.72
2019-04-28T01:57:15.088Z,1000.69
2019-04-28T01:58:15.019Z,1000.74
2019-04-28T01:59:14.957Z,1000.71
2019-04-28T02:00:23.043Z,1000.78
2019-04-28T02:01:14.808Z,1000.71
2019-04-28T02:02:14.738Z,1000.70
2019-04-28T02:03:14.704Z,1000.64
2019-04-28T02:04:14.592Z,1000.71
2019-04-28T02:05:14.546Z,1000.69
2019-04-28T02:06:14.466Z,1000.70
2019-04-28T02:07:14.393Z,1000.70
2019-04-28T02:08:14.326Z,1000.72
2019-04-28T02:09:14.273Z,1000.70
2019-04-28T02:10:14.173Z,1000.71
2019-04-28T02:11:14.111Z,1000.67
2019-04-28T02:12:14.034Z,1000.70
2019-04-28T02:13:13.971Z,1000.72
2019-04-28T02:14:13.909Z,1000.70
2019-04-28T02:15:13.819Z,1000.71
2019-04-28T02:16:13.750Z,1000.80
2019-04-28T02:17:13.693Z,1000.77
2019-04-28T02:18:13.622Z,1000.76
2019-04-28T02:19:13.555Z,1000.71
2019-04-28T02:20:13.480Z,1000.77
2019-04-28T02:21:13.394Z,1000.71
2019-04-28T02:22:13.324Z,1000.68
2019-04-28T02:23:13.270Z,1000.70
2019-04-28T02:24:13.195Z,1000.72
2019-04-28T02:25:13.116Z,1000.66
2019-04-28T02:26:13.046Z,1000.66
2019-04-28T02:27:12.978Z,1000.65
2019-04-28T02:28:12.902Z,1000.70
2019-04-28T02:29:12.847Z,1000.67
2019-04-28T02:30:12.781Z,1000.64
2019-04-28T02:31:12.717Z,1000.65
2019-04-28T02:32:12.636Z,1000.66
2019-04-28T02:33:12.561Z,1000.62
2019-04-28T02:34:12.499Z,1000.64
2019-04-28T02:35:12.436Z,1000.62
2019-04-28T02:36:12.505Z,1000.59
2019-04-28T02:37:12.271Z,1000.61
2019-04-28T02:38:12.205Z,1000.59
2019-04-28T02:39:12.129Z,1000.61
2019-04-28T02:40:12.060Z,1000.60
2019-04-28T02:41:12.003Z,1000.60
2019-04-28T02:42:11.934Z,1000.59
2019-04-28T02:43:11.859Z,1000.58
2019-04-28T02:44:11.785Z,1000.62
2019-04-28T02:45:12.015Z,1000.64
2019-04-28T02:46:11.637Z,1000.62
2019-04-28T02:47:11.582Z,1000.62
2019-04-28T02:48:11.507Z,1000.61
2019-04-28T02:49:11.425Z,1000.63
2019-04-28T02:50:11.538Z,1000.61
2019-04-28T02:51:11.291Z,1000.58
2019-04-28T02:52:11.212Z,1000.59
2019-04-28T02:53:11.271Z,1000.53
2019-04-28T02:54:11.086Z,1000.52
2019-04-28T02:55:11.364Z,1000.53
2019-04-28T02:56:11.357Z,1000.49
2019-04-28T02:57:11.143Z,1000.52
2019-04-28T02:58:13.331Z,1000.53
2019-04-28T02:59:11.081Z,1000.45
2019-04-28T03:00:10.659Z,1000.51
2019-04-28T03:01:21.357Z,1000.48
2019-04-28T03:02:10.782Z,1000.45
2019-04-28T03:03:11.000Z,1000.49
2019-04-28T03:04:12.394Z,1000.45
2019-04-28T03:05:11.656Z,1000.42
2019-04-28T03:06:10.796Z,1000.41
2019-04-28T03:07:11.496Z,1000.41
2019-04-28T03:08:11.175Z,1000.43
2019-04-28T03:09:10.638Z,1000.37
2019-04-28T03:10:11.077Z,1000.40
2019-04-28T03:11:10.664Z,1000.40
2019-04-28T03:12:11.358Z,1000.33
2019-04-28T03:13:10.801Z,1000.34
2019-04-28T03:14:11.091Z,1000.32
2019-04-28T03:15:10.399Z,1000.31
2019-04-28T03:16:10.810Z,1000.31
2019-04-28T03:17:10.983Z,1000.28
2019-04-28T03:18:11.451Z,1000.26
2019-04-28T03:19:10.945Z,1000.30
2019-04-28T03:20:10.933Z,1000.28
2019-04-28T03:21:11.484Z,1000.20
2019-04-28T03:22:11.486Z,1000.24
2019-04-28T03:23:12.110Z,1000.21
2019-04-28T03:24:11.006Z,1000.19
2019-04-28T03:25:10.939Z,1000.18
2019-04-28T03:26:10.974Z,1000.19
2019-04-28T03:27:10.782Z,1000.14
2019-04-28T03:28:11.797Z,1000.16
2019-04-28T03:29:10.880Z,1000.11
2019-04-28T03:30:12.731Z,1000.07
2019-04-28T03:31:36.791Z,1000.06
2019-04-28T03:32:28.480Z,1000.05
2019-04-28T03:33:17.071Z,1000.04
2019-04-28T03:34:12.514Z,1000.03
2019-04-28T03:35:12.448Z,1000.00
2019-04-28T03:36:10.277Z,999.95
2019-04-28T03:37:08.039Z,1000.02
2019-04-28T03:38:07.976Z,1000.01
2019-04-28T03:39:10.852Z,1000.00
2019-04-28T03:40:07.825Z,999.96
2019-04-28T03:41:07.769Z,999.96
2019-04-28T03:42:07.693Z,999.93
2019-04-28T03:43:07.621Z,999.89
2019-04-28T03:44:07.554Z,999.91
2019-04-28T03:45:07.471Z,999.92
2019-04-28T03:46:07.394Z,999.93
2019-04-28T03:47:07.332Z,999.87
2019-04-28T03:48:07.255Z,999.81
2019-04-28T03:49:07.199Z,999.80
2019-04-28T03:50:07.123Z,999.81
2019-04-28T03:51:07.047Z,999.77
2019-04-28T03:52:07.024Z,999.85
2019-04-28T03:53:06.924Z,999.80
2019-04-28T03:54:06.840Z,999.74
2019-04-28T03:55:06.766Z,999.83
2019-04-28T03:56:06.695Z,999.80
2019-04-28T03:57:06.616Z,999.79
2019-04-28T03:58:06.549Z,999.74
2019-04-28T03:59:06.487Z,999.78
2019-04-28T04:00:06.421Z,999.71
2019-04-28T04:01:07.150Z,999.69
2019-04-28T04:02:06.260Z,999.71
2019-04-28T04:03:06.188Z,999.69
2019-04-28T04:04:06.124Z,999.73
2019-04-28T04:05:06.055Z,999.74
2019-04-28T04:06:05.977Z,999.65
2019-04-28T04:07:05.925Z,999.63
2019-04-28T04:08:05.846Z,999.65
2019-04-28T04:09:05.760Z,999.58
2019-04-28T04:10:05.687Z,999.60
2019-04-28T04:11:05.622Z,999.61
2019-04-28T04:12:05.551Z,999.60
2019-04-28T04:13:05.489Z,999.66
2019-04-28T04:14:05.418Z,999.60
2019-04-28T04:15:05.339Z,999.63
2019-04-28T04:16:05.264Z,999.58
2019-04-28T04:17:05.202Z,999.62
2019-04-28T04:18:05.132Z,999.61
2019-04-28T04:19:05.057Z,999.61
2019-04-28T04:20:04.984Z,999.59
2019-04-28T04:21:04.907Z,999.59
2019-04-28T04:22:04.840Z,999.56
2019-04-28T04:23:04.780Z,999.54
2019-04-28T04:24:04.699Z,999.57
2019-04-28T04:25:04.659Z,999.56
2019-04-28T04:26:04.560Z,999.58
2019-04-28T04:27:04.490Z,999.56
2019-04-28T04:28:04.409Z,999.56
2019-04-28T04:29:04.354Z,999.55
2019-04-28T04:30:04.303Z,999.56
2019-04-28T04:31:04.189Z,999.58
2019-04-28T04:32:15.715Z,999.57
2019-04-28T04:33:04.058Z,999.64
2019-04-28T04:34:03.995Z,999.70
2019-04-28T04:35:03.921Z,999.64
2019-04-28T04:36:03.857Z,999.64
2019-04-28T04:37:03.764Z,999.63
2019-04-28T04:38:03.718Z,999.58
2019-04-28T04:39:03.623Z,999.60
2019-04-28T04:40:03.557Z,999.57
2019-04-28T04:41:03.486Z,999.60
2019-04-28T04:42:03.419Z,999.58
2019-04-28T04:43:03.346Z,999.54
2019-04-28T04:44:03.278Z,999.58
2019-04-28T04:45:03.204Z,999.57
2019-04-28T04:46:03.123Z,999.65
2019-04-28T04:47:03.069Z,999.67
2019-04-28T04:48:03.007Z,999.60
2019-04-28T04:49:02.907Z,999.68
2019-04-28T04:50:02.846Z,999.63
2019-04-28T04:51:02.764Z,999.65
2019-04-28T04:52:02.697Z,999.66
2019-04-28T04:53:02.947Z,999.66
2019-04-28T04:54:02.562Z,999.63
2019-04-28T04:55:02.482Z,999.69
2019-04-28T04:56:02.406Z,999.72
2019-04-28T04:57:02.377Z,999.67
2019-04-28T04:58:02.276Z,999.72
2019-04-28T04:59:02.943Z,999.75
2019-04-28T05:00:02.133Z,999.70
2019-04-28T05:01:02.049Z,999.65
2019-04-28T05:02:02.438Z,999.66
2019-04-28T05:03:01.919Z,999.67
2019-04-28T05:04:01.843Z,999.71
2019-04-28T05:05:01.770Z,999.66
2019-04-28T05:06:01.693Z,999.70
2019-04-28T05:07:01.622Z,999.69
2019-04-28T05:08:01.568Z,999.71
2019-04-28T05:09:01.485Z,999.74
2019-04-28T05:10:01.420Z,999.74
2019-04-28T05:11:01.347Z,999.68
2019-04-28T05:12:01.270Z,999.69
2019-04-28T05:13:01.191Z,999.71
2019-04-28T05:14:01.121Z,999.72
2019-04-28T05:15:01.052Z,999.66
2019-04-28T05:16:00.979Z,999.70
2019-04-28T05:17:00.988Z,999.69
2019-04-28T05:18:00.849Z,999.69
2019-04-28T05:19:00.759Z,999.69
2019-04-28T05:20:01.462Z,999.69
2019-04-28T05:21:00.628Z,999.71
2019-04-28T05:22:00.562Z,999.74
2019-04-28T05:23:00.721Z,999.72
2019-04-28T05:24:00.416Z,999.67
2019-04-28T05:25:00.344Z,999.68
2019-04-28T05:26:01.546Z,999.67
2019-04-28T05:27:00.200Z,999.68
2019-04-28T05:28:02.912Z,999.69
2019-04-28T05:29:00.049Z,999.64
2019-04-28T05:30:03.790Z,999.67
2019-04-28T05:31:00.115Z,999.68
2019-04-28T05:32:03.351Z,999.62
2019-04-28T05:33:00.363Z,999.58
2019-04-28T05:34:00.107Z,999.67
2019-04-28T05:35:00.149Z,999.60
2019-04-28T05:36:02.965Z,999.52
2019-04-28T05:37:00.699Z,999.53
2019-04-28T05:37:59.868Z,999.51
2019-04-28T05:39:00.182Z,999.55
2019-04-28T05:40:00.813Z,999.55
2019-04-28T05:41:00.306Z,999.52
2019-04-28T05:42:00.803Z,999.51
2019-04-28T05:43:00.906Z,999.49
2019-04-28T05:43:59.589Z,999.49
2019-04-28T05:44:59.961Z,999.54
2019-04-28T05:46:00.308Z,999.51
2019-04-28T05:46:59.571Z,999.47
2019-04-28T05:47:59.457Z,999.45
2019-04-28T05:48:59.997Z,999.47
2019-04-28T05:50:00.216Z,999.41
2019-04-28T05:50:59.915Z,999.53
2019-04-28T05:51:58.412Z,999.55
2019-04-28T05:52:58.324Z,999.52
2019-04-28T05:53:59.509Z,999.52
2019-04-28T05:54:59.820Z,999.52
2019-04-28T05:55:59.945Z,999.56
2019-04-28T05:56:59.732Z,999.59
2019-04-28T05:57:59.853Z,999.48
2019-04-28T05:58:57.909Z,999.55
2019-04-28T06:00:01.039Z,999.52
2019-04-28T06:00:57.761Z,999.51
2019-04-28T06:01:57.679Z,999.51
2019-04-28T06:02:57.606Z,999.54
2019-04-28T06:03:57.537Z,999.46
2019-04-28T06:04:57.483Z,999.50
2019-04-28T06:05:57.415Z,999.53
2019-04-28T06:06:57.325Z,999.53
2019-04-28T06:07:57.261Z,999.41
2019-04-28T06:08:57.194Z,999.44
2019-04-28T06:09:57.124Z,999.41
2019-04-28T06:10:57.048Z,999.50
2019-04-28T06:11:56.983Z,999.44
2019-04-28T06:12:56.908Z,999.51
2019-04-28T06:13:56.829Z,999.46
2019-04-28T06:14:56.759Z,999.50
2019-04-28T06:15:56.683Z,999.45
2019-04-28T06:16:56.624Z,999.51
2019-04-28T06:17:56.558Z,999.52
2019-04-28T06:18:56.484Z,999.51
2019-04-28T06:19:56.419Z,999.43
2019-04-28T06:20:56.338Z,999.46
2019-04-28T06:21:56.257Z,999.50
2019-04-28T06:22:56.268Z,999.49
2019-04-28T06:23:56.130Z,999.55
2019-04-28T06:24:56.049Z,999.49
2019-04-28T06:25:55.987Z,999.48
2019-04-28T06:26:55.902Z,999.49
2019-04-28T06:27:55.835Z,999.41
2019-04-28T06:28:55.783Z,999.53
2019-04-28T06:29:55.718Z,999.49
2019-04-28T06:30:55.630Z,999.48
2019-04-28T06:31:55.552Z,999.53
2019-04-28T06:33:07.160Z,999.46
2019-04-28T06:33:55.428Z,999.41
2019-04-28T06:34:55.373Z,999.50
2019-04-28T06:35:55.311Z,999.37
2019-04-28T06:36:55.202Z,999.53
2019-04-28T06:37:55.136Z,999.38
2019-04-28T06:38:55.073Z,999.51
2019-04-28T06:39:55.003Z,999.47
2019-04-28T06:40:54.919Z,999.45
2019-04-28T06:41:54.853Z,999.48
2019-04-28T06:42:54.781Z,999.46
2019-04-28T06:43:54.709Z,999.45
2019-04-28T06:44:54.655Z,999.51
2019-04-28T06:45:54.585Z,999.39
2019-04-28T06:46:54.512Z,999.50
2019-04-28T06:47:54.443Z,999.49
2019-04-28T06:48:54.379Z,999.51
2019-04-28T06:49:54.315Z,999.51
2019-04-28T06:50:54.223Z,999.47
2019-04-28T06:51:54.153Z,999.47
2019-04-28T06:52:54.094Z,999.45
2019-04-28T06:53:54.027Z,999.47
2019-04-28T06:54:53.945Z,999.48
2019-04-28T06:55:53.877Z,999.44
2019-04-28T06:56:53.817Z,999.45
2019-04-28T06:57:53.752Z,999.47
2019-04-28T06:58:59.336Z,999.35
2019-04-28T06:59:53.617Z,999.42
2019-04-28T07:00:53.523Z,999.36
2019-04-28T07:01:53.458Z,999.44
2019-04-28T07:02:53.385Z,999.37
2019-04-28T07:03:53.323Z,999.36
2019-04-28T07:05:01.567Z,999.35
2019-04-28T07:05:53.187Z,999.34
2019-04-28T07:06:53.122Z,999.42
2019-04-28T07:07:53.083Z,999.35
2019-04-28T07:08:52.971Z,999.38
2019-04-28T07:09:52.905Z,999.44
2019-04-28T07:10:52.849Z,999.36
2019-04-28T07:11:52.785Z,999.36
2019-04-28T07:12:52.696Z,999.37
2019-04-28T07:13:52.629Z,999.31
2019-04-28T07:14:52.563Z,999.37
2019-04-28T07:15:52.490Z,999.26
2019-04-28T07:16:52.442Z,999.31
2019-04-28T07:17:52.360Z,999.30
2019-04-28T07:18:52.305Z,999.34
2019-04-28T07:19:52.230Z,999.35
2019-04-28T07:20:52.153Z,999.29
2019-04-28T07:21:52.076Z,999.33
2019-04-28T07:22:52.017Z,999.37
2019-04-28T07:23:51.935Z,999.39
2019-04-28T07:24:51.885Z,999.38
2019-04-28T07:25:51.820Z,999.35
2019-04-28T07:26:51.730Z,999.36
2019-04-28T07:27:51.659Z,999.35
2019-04-28T07:28:51.634Z,999.39
2019-04-28T07:29:51.538Z,999.32
2019-04-28T07:30:51.475Z,999.42
2019-04-28T07:31:51.399Z,999.37
2019-04-28T07:32:51.321Z,999.35
2019-04-28T07:33:51.288Z,999.37
2019-04-28T07:34:51.190Z,999.39
2019-04-28T07:35:51.126Z,999.42
2019-04-28T07:36:51.044Z,999.43
2019-04-28T07:37:50.993Z,999.35
2019-04-28T07:38:50.907Z,999.42
2019-04-28T07:39:50.841Z,999.35
2019-04-28T07:40:50.790Z,999.29
2019-04-28T07:41:50.719Z,999.45
2019-04-28T07:42:50.638Z,999.40
2019-04-28T07:43:50.569Z,999.47
2019-04-28T07:44:50.511Z,999.38
2019-04-28T07:45:50.443Z,999.38
2019-04-28T07:46:50.375Z,999.34
2019-04-28T07:47:50.300Z,999.39
2019-04-28T07:48:52.434Z,999.40
2019-04-28T07:49:50.152Z,999.44
2019-04-28T07:50:50.093Z,999.37
2019-04-28T07:51:50.023Z,999.48
2019-04-28T07:52:49.974Z,999.34
2019-04-28T07:53:49.897Z,999.32
2019-04-28T07:54:49.836Z,999.26
2019-04-28T07:55:49.763Z,999.32
2019-04-28T07:56:49.729Z,999.32
2019-04-28T07:57:49.612Z,999.22
2019-04-28T07:58:49.556Z,999.33
2019-04-28T07:59:49.492Z,999.29
2019-04-28T08:00:49.408Z,999.33
2019-04-28T08:01:49.343Z,999.32
2019-04-28T08:02:49.279Z,999.30
2019-04-28T08:03:50.099Z,999.33
2019-04-28T08:04:49.144Z,999.28
2019-04-28T08:05:49.077Z,999.28
2019-04-28T08:06:49.024Z,999.27
2019-04-28T08:07:48.943Z,999.29
2019-04-28T08:08:48.907Z,999.26
2019-04-28T08:09:48.797Z,999.27
2019-04-28T08:10:48.736Z,999.26
2019-04-28T08:11:48.668Z,999.21
2019-04-28T08:12:49.221Z,999.15
2019-04-28T08:13:48.531Z,999.13
2019-04-28T08:14:48.460Z,999.15
2019-04-28T08:15:48.387Z,999.07
2019-04-28T08:16:48.334Z,999.13
2019-04-28T08:17:48.263Z,999.05
2019-04-28T08:18:48.192Z,999.12
2019-04-28T08:19:48.129Z,999.16
2019-04-28T08:20:48.049Z,999.01
2019-04-28T08:21:47.985Z,999.01
2019-04-28T08:22:47.909Z,999.07
2019-04-28T08:23:47.839Z,998.99
2019-04-28T08:24:47.787Z,999.01
2019-04-28T08:25:47.721Z,998.91
2019-04-28T08:26:47.654Z,998.97
2019-04-28T08:27:47.585Z,999.00
2019-04-28T08:28:47.504Z,998.95
2019-04-28T08:29:58.041Z,998.98
2019-04-28T08:30:47.385Z,998.99
2019-04-28T08:31:47.316Z,998.97
2019-04-28T08:32:47.235Z,998.99
2019-04-28T08:33:47.182Z,998.98
2019-04-28T08:34:47.113Z,998.95
2019-04-28T08:35:47.029Z,999.06
2019-04-28T08:36:46.972Z,999.02
2019-04-28T08:37:46.906Z,999.02
2019-04-28T08:38:46.829Z,999.10
2019-04-28T08:39:46.767Z,999.11
2019-04-28T08:40:46.701Z,998.96
2019-04-28T08:41:46.638Z,999.06
2019-04-28T08:42:46.569Z,998.97
2019-04-28T08:43:46.501Z,998.97
2019-04-28T08:44:46.417Z,999.00
2019-04-28T08:45:46.349Z,998.94
2019-04-28T08:46:46.294Z,998.79
2019-04-28T08:47:46.226Z,998.89
2019-04-28T08:48:46.149Z,998.95
2019-04-28T08:49:46.080Z,998.84
2019-04-28T08:50:46.011Z,998.88
2019-04-28T08:51:45.943Z,998.88
2019-04-28T08:52:45.890Z,998.90
2019-04-28T08:53:45.819Z,998.96
2019-04-28T08:54:45.750Z,998.87
2019-04-28T08:55:45.683Z,998.93
2019-04-28T08:56:45.603Z,998.99
2019-04-28T08:57:45.537Z,998.90
2019-04-28T08:58:45.471Z,998.93
2019-04-28T08:59:45.399Z,998.84
2019-04-28T09:00:45.346Z,998.87
2019-04-28T09:01:45.282Z,999.00
2019-04-28T09:02:45.197Z,998.93
2019-04-28T09:03:45.125Z,998.94
2019-04-28T09:04:45.073Z,998.97
2019-04-28T09:05:45.003Z,998.92
2019-04-28T09:06:44.935Z,998.96
2019-04-28T09:07:44.869Z,999.02
2019-04-28T09:08:44.781Z,998.98
2019-04-28T09:09:44.717Z,999.01
2019-04-28T09:10:44.664Z,999.02
2019-04-28T09:11:44.589Z,998.97
2019-04-28T09:12:44.509Z,999.00
2019-04-28T09:13:44.444Z,998.97
2019-04-28T09:14:44.375Z,999.07
2019-04-28T09:15:44.307Z,999.05
2019-04-28T09:16:44.250Z,999.07
2019-04-28T09:17:44.185Z,999.04
2019-04-28T09:18:44.103Z,999.02
2019-04-28T09:19:44.033Z,999.14
2019-04-28T09:20:43.984Z,998.96
2019-04-28T09:21:43.912Z,998.99
2019-04-28T09:22:43.840Z,999.01
2019-04-28T09:23:43.770Z,999.04
2019-04-28T09:24:43.695Z,999.02
2019-04-28T09:25:43.637Z,998.97
2019-04-28T09:26:43.553Z,999.00
2019-04-28T09:27:43.489Z,998.93
2019-04-28T09:28:43.434Z,998.84
2019-04-28T09:29:43.388Z,998.93
2019-04-28T09:30:43.305Z,998.98
2019-04-28T09:31:43.228Z,998.88
2019-04-28T09:32:43.147Z,998.81
2019-04-28T09:33:43.087Z,998.83
2019-04-28T09:34:43.026Z,998.79
2019-04-28T09:35:42.970Z,998.78
2019-04-28T09:36:42.879Z,998.77
2019-04-28T09:37:42.813Z,998.73
2019-04-28T09:38:42.742Z,998.73
2019-04-28T09:39:42.681Z,998.67
2019-04-28T09:40:42.621Z,998.65
2019-04-28T09:41:42.577Z,998.73
2019-04-28T09:42:42.469Z,998.60
2019-04-28T09:43:42.405Z,998.65
2019-04-28T09:44:42.349Z,998.76
2019-04-28T09:45:42.279Z,998.69
2019-04-28T09:46:42.211Z,998.68
2019-04-28T09:47:42.152Z,998.69
2019-04-28T09:48:42.067Z,998.71
2019-04-28T09:49:42.003Z,998.71
2019-04-28T09:50:41.939Z,998.73
2019-04-28T09:51:41.881Z,998.72
2019-04-28T09:52:41.796Z,998.71
2019-04-28T09:53:41.729Z,998.65
2019-04-28T09:54:41.665Z,998.75
2019-04-28T09:55:41.594Z,998.67
2019-04-28T09:56:41.543Z,998.68
2019-04-28T09:57:41.478Z,998.63
2019-04-28T09:58:41.400Z,998.67
2019-04-28T09:59:41.330Z,998.59
2019-04-28T10:00:41.257Z,998.62
2019-04-28T10:01:41.189Z,998.74
2019-04-28T10:02:41.127Z,998.70
2019-04-28T10:03:41.057Z,998.65
2019-04-28T10:04:42.063Z,998.65
2019-04-28T10:05:40.934Z,998.72
2019-04-28T10:06:40.852Z,998.70
2019-04-28T10:07:40.799Z,998.60
2019-04-28T10:08:40.727Z,998.61
2019-04-28T10:09:40.666Z,998.53
2019-04-28T10:10:40.594Z,998.59
2019-04-28T10:11:40.531Z,998.60
2019-04-28T10:12:40.449Z,998.60
2019-04-28T10:13:40.384Z,998.60
2019-04-28T10:14:40.313Z,998.54
2019-04-28T10:15:40.244Z,998.48
2019-04-28T10:16:40.186Z,998.62
2019-04-28T10:17:40.121Z,998.59
2019-04-28T10:18:40.057Z,998.67
2019-04-28T10:19:39.989Z,998.67
2019-04-28T10:20:39.917Z,998.60
2019-04-28T10:21:39.839Z,998.65
2019-04-28T10:22:39.784Z,998.57
2019-04-28T10:23:39.717Z,998.63
2019-04-28T10:24:39.639Z,998.64
2019-04-28T10:25:39.572Z,998.61
2019-04-28T10:26:39.501Z,998.64
2019-04-28T10:27:39.460Z,998.59
2019-04-28T10:28:39.380Z,998.54
2019-04-28T10:29:39.317Z,998.58
2019-04-28T10:30:39.251Z,998.62
2019-04-28T10:31:39.169Z,998.55
2019-04-28T10:32:39.105Z,998.51
2019-04-28T10:33:39.037Z,998.53
2019-04-28T10:34:38.969Z,998.52
2019-04-28T10:35:38.915Z,998.59
2019-04-28T10:36:38.849Z,998.42
2019-04-28T10:37:38.771Z,998.47
2019-04-28T10:38:38.699Z,998.39
2019-04-28T10:39:38.639Z,998.24
2019-04-28T10:40:38.577Z,998.42
2019-04-28T10:41:38.514Z,998.41
2019-04-28T10:42:38.447Z,998.37
2019-04-28T10:43:38.363Z,998.32
2019-04-28T10:44:38.296Z,998.29
2019-04-28T10:45:38.240Z,998.27
2019-04-28T10:46:38.176Z,998.29
2019-04-28T10:47:38.096Z,998.22
2019-04-28T10:48:38.030Z,998.17
2019-04-28T10:49:37.965Z,998.16
2019-04-28T10:50:37.895Z,998.12
2019-04-28T10:51:37.838Z,998.08
2019-04-28T10:52:37.781Z,998.06
2019-04-28T10:53:37.694Z,997.95
2019-04-28T10:54:37.625Z,998.01
2019-04-28T10:55:37.567Z,998.04
2019-04-28T10:56:37.501Z,997.95
2019-04-28T10:57:37.436Z,998.02
2019-04-28T10:58:37.369Z,997.95
2019-04-28T10:59:37.288Z,997.93
2019-04-28T11:00:37.218Z,997.93
2019-04-28T11:01:37.164Z,997.93
2019-04-28T11:02:37.086Z,997.89
2019-04-28T11:03:37.027Z,997.94
2019-04-28T11:04:36.968Z,997.96
2019-04-28T11:05:36.897Z,998.01
2019-04-28T11:06:36.853Z,997.99
2019-04-28T11:07:36.752Z,997.89
2019-04-28T11:08:36.706Z,997.89
2019-04-28T11:09:36.629Z,997.90
2019-04-28T11:10:36.563Z,997.87
2019-04-28T11:11:36.479Z,997.87
2019-04-28T11:12:36.416Z,997.87
2019-04-28T11:13:36.348Z,997.86
2019-04-28T11:14:36.281Z,997.85
2019-04-28T11:15:36.226Z,997.85
2019-04-28T11:16:36.159Z,997.84
2019-04-28T11:17:36.096Z,997.85
2019-04-28T11:18:36.028Z,997.87
2019-04-28T11:19:35.950Z,997.77
2019-04-28T11:20:35.879Z,997.78
2019-04-28T11:21:35.813Z,997.74
2019-04-28T11:22:35.765Z,997.74
2019-04-28T11:23:35.691Z,997.70
2019-04-28T11:24:35.632Z,997.66
2019-04-28T11:25:35.545Z,997.60
2019-04-28T11:26:35.544Z,997.64
2019-04-28T11:27:35.424Z,997.67
2019-04-28T11:28:37.801Z,997.69
2019-04-28T11:29:35.289Z,997.56
2019-04-28T11:30:35.223Z,997.59
2019-04-28T11:31:35.144Z,997.55
2019-04-28T11:32:35.076Z,997.44
2019-04-28T11:33:35.018Z,997.41
2019-04-28T11:34:34.943Z,997.39
2019-04-28T11:35:34.941Z,997.45
2019-04-28T11:36:34.825Z,997.43
2019-04-28T11:37:34.768Z,997.41
2019-04-28T11:38:34.691Z,997.34
2019-04-28T11:39:34.611Z,997.34
2019-04-28T11:40:34.543Z,997.35
2019-04-28T11:41:34.491Z,997.32
2019-04-28T11:42:34.422Z,997.34
2019-04-28T11:43:34.346Z,997.32
2019-04-28T11:44:34.275Z,997.28
2019-04-28T11:45:34.210Z,997.31
2019-04-28T11:46:34.145Z,997.24
2019-04-28T11:47:34.088Z,997.26
2019-04-28T11:48:34.025Z,997.21
2019-04-28T11:49:33.939Z,997.19
2019-04-28T11:50:33.898Z,997.22
2019-04-28T11:51:33.817Z,997.20
2019-04-28T11:52:33.754Z,997.09
2019-04-28T11:53:33.686Z,997.12
2019-04-28T11:54:33.613Z,997.11
2019-04-28T11:55:33.537Z,997.10
2019-04-28T11:56:41.249Z,997.05
2019-04-28T11:57:33.416Z,997.08
2019-04-28T11:58:33.349Z,997.04
2019-04-28T11:59:33.270Z,997.03
2019-04-28T12:00:33.204Z,997.13
2019-04-28T12:01:33.132Z,997.14
2019-04-28T12:02:33.071Z,997.14
2019-04-28T12:03:33.013Z,997.07
2019-04-28T12:04:32.941Z,997.09
2019-04-28T12:05:34.575Z,997.11
2019-04-28T12:06:32.812Z,996.97
2019-04-28T12:07:32.734Z,997.02
2019-04-28T12:08:32.666Z,997.00
2019-04-28T12:09:32.598Z,997.02
2019-04-28T12:10:32.534Z,996.98
2019-04-28T12:11:32.476Z,996.93
2019-04-28T12:12:32.414Z,996.92
2019-04-28T12:13:32.326Z,996.91
2019-04-28T12:14:32.263Z,996.88
2019-04-28T12:15:32.209Z,996.87
2019-04-28T12:16:32.140Z,996.94
2019-04-28T12:17:34.923Z,996.92
2019-04-28T12:18:32.001Z,996.88
2019-04-28T12:19:31.920Z,996.80
2019-04-28T12:20:31.858Z,996.82